createdAt,value
2023-03-11T00:00:44.339Z,10.03
2023-03-11T00:03:14.006Z,9.99
2023-03-11T00:05:42.603Z,10.23
2023-03-11T00:08:13.076Z,10.07
2023-03-11T00:10:41.919Z,9.90
2023-03-11T00:13:10.387Z,10.08
2023-03-11T00:15:38.071Z,10.36
2023-03-11T00:18:06.078Z,10.24
2023-03-11T00:20:35.856Z,10.10
2023-03-11T00:23:03.844Z,9.99
2023-03-11T00:25:31.988Z,9.97
2023-03-11T00:27:59.454Z,9.77
2023-03-11T00:30:26.893Z,10.12
2023-03-11T00:32:55.768Z,9.92
2023-03-11T00:35:24.900Z,9.98
2023-03-11T00:37:57.358Z,10.17
2023-03-11T00:40:25.778Z,9.98
2023-03-11T00:42:53.178Z,10.02
2023-03-11T00:45:20.747Z,9.85
2023-03-11T00:47:48.458Z,10.04
2023-03-11T00:50:21.021Z,10.21
2023-03-11T00:52:48.909Z,10.14
2023-03-11T00:55:18.905Z,10.08
2023-03-11T00:57:46.269Z,10.18
2023-03-11T01:00:16.257Z,10.21
2023-03-11T01:02:43.777Z,10.17
2023-03-11T01:05:11.251Z,10.12
2023-03-11T01:07:38.851Z,9.96
2023-03-11T01:10:07.538Z,9.95
2023-03-11T01:12:34.883Z,9.85
2023-03-11T01:15:03.106Z,9.67
2023-03-11T01:17:30.499Z,9.74
2023-03-11T01:19:57.912Z,9.76
2023-03-11T01:22:25.532Z,9.74
2023-03-11T01:24:52.863Z,9.67
2023-03-11T01:27:20.209Z,9.68
2023-03-11T01:29:47.827Z,9.54
2023-03-11T01:32:15.361Z,9.74
2023-03-11T01:34:42.744Z,9.44
2023-03-11T01:37:10.350Z,9.29
2023-03-11T01:39:37.790Z,9.45
2023-03-11T01:42:05.383Z,9.57
2023-03-11T01:44:33.013Z,9.32
2023-03-11T01:47:02.125Z,9.39
2023-03-11T01:49:29.693Z,9.96
2023-03-11T01:51:59.797Z,9.81
2023-03-11T01:54:28.512Z,10.11
2023-03-11T01:56:55.969Z,9.40
2023-03-11T01:59:25.364Z,9.54
2023-03-11T02:02:02.493Z,9.76
2023-03-11T02:04:30.163Z,9.44
2023-03-11T02:06:57.511Z,9.36
2023-03-11T02:09:27.102Z,9.30
2023-03-11T02:11:54.879Z,9.47
2023-03-11T02:14:22.436Z,9.49
2023-03-11T02:16:50.002Z,9.64
2023-03-11T02:19:30.426Z,9.55
2023-03-11T02:21:58.212Z,9.72
2023-03-11T02:24:25.789Z,9.46
2023-03-11T02:26:56.512Z,9.43
2023-03-11T02:29:24.505Z,9.28
2023-03-11T02:31:52.453Z,9.61
2023-03-11T02:34:30.830Z,9.43
2023-03-11T02:36:59.212Z,9.49
2023-03-11T02:39:34.155Z,9.57
2023-03-11T02:42:07.334Z,9.60
2023-03-11T02:44:34.721Z,9.57
2023-03-11T02:47:02.439Z,9.66
2023-03-11T02:49:30.062Z,9.67
2023-03-11T02:51:57.422Z,9.32
2023-03-11T02:54:25.057Z,9.47
2023-03-11T02:56:52.546Z,9.71
2023-03-11T02:59:19.927Z,9.48
2023-03-11T03:01:47.724Z,9.52
2023-03-11T03:04:15.526Z,9.40
2023-03-11T03:06:42.922Z,9.53
2023-03-11T03:09:10.572Z,9.46
2023-03-11T03:11:37.968Z,9.49
2023-03-11T03:14:05.359Z,9.60
2023-03-11T03:16:33.029Z,9.57
2023-03-11T03:19:00.378Z,9.62
2023-03-11T03:21:27.806Z,9.55
2023-03-11T03:23:55.986Z,9.67
2023-03-11T03:26:23.342Z,9.33
2023-03-11T03:28:51.672Z,9.48
2023-03-11T03:31:19.495Z,9.55
2023-03-11T03:33:46.884Z,9.61
2023-03-11T03:36:14.435Z,9.28
2023-03-11T03:38:42.391Z,9.21
2023-03-11T03:41:09.968Z,9.43
2023-03-11T03:43:37.692Z,9.22
2023-03-11T03:46:05.566Z,9.36
2023-03-11T03:48:33.490Z,9.23
2023-03-11T03:51:06.658Z,8.92
2023-03-11T03:53:34.917Z,9.00
2023-03-11T03:56:04.078Z,8.94
2023-03-11T03:58:32.859Z,8.79
2023-03-11T04:01:00.817Z,8.68
2023-03-11T04:03:28.711Z,9.11
2023-03-11T04:06:10.961Z,8.75
2023-03-11T04:08:38.778Z,8.51
2023-03-11T04:11:06.228Z,9.02
2023-03-11T04:13:33.732Z,8.45
2023-03-11T04:16:03.421Z,8.48
2023-03-11T04:18:31.000Z,8.45
2023-03-11T04:20:58.542Z,8.53
2023-03-11T04:23:26.152Z,8.40
2023-03-11T04:25:54.584Z,8.80
2023-03-11T04:28:22.240Z,8.49
2023-03-11T04:30:49.941Z,8.51
2023-03-11T04:33:17.876Z,8.42
2023-03-11T04:35:45.255Z,8.32
2023-03-11T04:38:12.958Z,8.10
2023-03-11T04:40:40.446Z,8.07
2023-03-11T04:43:08.511Z,8.13
2023-03-11T04:45:41.139Z,7.90
2023-03-11T04:48:09.061Z,7.76
2023-03-11T04:50:37.152Z,7.97
2023-03-11T04:53:04.531Z,7.72
2023-03-11T04:55:33.314Z,7.44
2023-03-11T04:58:01.121Z,7.87
2023-03-11T05:00:29.014Z,7.50
2023-03-11T05:02:57.238Z,7.59
2023-03-11T05:05:24.939Z,7.40
2023-03-11T05:07:52.394Z,7.25
2023-03-11T05:10:22.477Z,7.17
2023-03-11T05:12:51.265Z,7.15
2023-03-11T05:15:18.979Z,7.16
2023-03-11T05:17:46.724Z,7.10
2023-03-11T05:20:15.792Z,7.37
2023-03-11T05:22:43.502Z,6.60
2023-03-11T05:25:11.043Z,7.18
2023-03-11T05:27:39.721Z,6.81
2023-03-11T05:30:10.043Z,6.66
2023-03-11T05:32:38.015Z,6.59
2023-03-11T05:35:07.001Z,6.71
2023-03-11T05:37:35.323Z,6.49
2023-03-11T05:40:06.613Z,6.61
2023-03-11T05:42:34.731Z,6.27
2023-03-11T05:45:02.567Z,6.63
2023-03-11T05:47:30.861Z,6.61
2023-03-11T05:49:58.636Z,6.38
2023-03-11T05:52:26.151Z,6.85
2023-03-11T05:54:53.630Z,6.74
2023-03-11T05:57:21.809Z,6.54
2023-03-11T05:59:49.157Z,7.35
2023-03-11T06:02:16.525Z,6.46
2023-03-11T06:04:44.555Z,6.27
2023-03-11T06:07:13.122Z,6.07
2023-03-11T06:09:40.705Z,6.17
2023-03-11T06:12:08.565Z,6.25
2023-03-11T06:14:38.648Z,6.30
2023-03-11T06:17:06.324Z,6.42
2023-03-11T06:19:33.984Z,6.34
2023-03-11T06:22:02.137Z,6.50
2023-03-11T06:24:29.811Z,6.41
2023-03-11T06:26:58.078Z,6.28
2023-03-11T06:29:26.773Z,6.20
2023-03-11T06:31:54.462Z,6.30
2023-03-11T06:34:23.708Z,5.91
2023-03-11T06:36:51.532Z,6.04
2023-03-11T06:39:18.866Z,6.06
2023-03-11T06:41:47.722Z,5.91
2023-03-11T06:44:15.078Z,6.34
2023-03-11T06:46:42.579Z,5.83
2023-03-11T06:49:10.330Z,6.29
2023-03-11T06:51:38.325Z,6.28
2023-03-11T06:54:05.864Z,5.81
2023-03-11T06:56:33.628Z,5.76
2023-03-11T06:59:01.547Z,5.74
2023-03-11T07:01:30.769Z,5.61
2023-03-11T07:03:59.234Z,5.75
2023-03-11T07:06:27.049Z,5.83
2023-03-11T07:08:55.607Z,6.39
2023-03-11T07:11:25.309Z,6.43
2023-03-11T07:13:53.898Z,5.72
2023-03-11T07:16:23.056Z,6.01
2023-03-11T07:18:51.481Z,6.40
2023-03-11T07:21:22.171Z,6.18
2023-03-11T07:23:53.183Z,5.52
2023-03-11T07:26:20.860Z,6.30
2023-03-11T07:28:49.420Z,5.93
2023-03-11T07:31:18.614Z,6.25
2023-03-11T07:33:46.484Z,6.09
2023-03-11T07:36:15.279Z,6.23
2023-03-11T07:38:42.686Z,6.36
2023-03-11T07:41:14.186Z,6.59
2023-03-11T07:43:42.154Z,7.44
2023-03-11T07:46:16.516Z,6.27
2023-03-11T07:48:44.100Z,6.36
2023-03-11T07:51:16.857Z,6.17
2023-03-11T07:53:44.263Z,5.91
2023-03-11T07:56:12.442Z,6.56
2023-03-11T07:58:40.190Z,6.02
2023-03-11T08:01:16.359Z,6.32
2023-03-11T08:03:49.607Z,6.25
2023-03-11T08:06:19.198Z,5.93
2023-03-11T08:08:47.080Z,5.67
2023-03-11T08:11:14.476Z,5.69
2023-03-11T08:13:42.274Z,5.87
2023-03-11T08:16:10.768Z,5.75
2023-03-11T08:18:38.125Z,5.81
2023-03-11T08:21:09.468Z,5.89
2023-03-11T08:23:37.070Z,5.88
2023-03-11T08:26:05.378Z,6.41
2023-03-11T08:28:32.722Z,6.26
2023-03-11T08:31:00.430Z,6.72
2023-03-11T08:33:27.834Z,6.04
2023-03-11T08:35:55.504Z,6.00
2023-03-11T08:38:23.352Z,5.94
2023-03-11T08:40:50.654Z,6.13
2023-03-11T08:43:17.956Z,5.99
2023-03-11T08:45:45.687Z,6.15
2023-03-11T08:48:13.081Z,6.33
2023-03-11T08:50:53.550Z,6.04
2023-03-11T08:53:22.839Z,6.21
2023-03-11T08:55:51.005Z,6.26
2023-03-11T08:58:19.216Z,6.42
2023-03-11T09:00:46.784Z,6.45
2023-03-11T09:03:14.143Z,6.56
2023-03-11T09:05:41.711Z,6.78
2023-03-11T09:08:09.387Z,6.61
2023-03-11T09:10:36.778Z,6.51
2023-03-11T09:13:04.110Z,7.18
2023-03-11T09:15:31.733Z,7.21
2023-03-11T09:17:59.798Z,6.90
2023-03-11T09:20:27.159Z,7.25
2023-03-11T09:22:54.814Z,6.80
2023-03-11T09:25:22.161Z,6.99
2023-03-11T09:27:49.655Z,7.18
2023-03-11T09:30:17.440Z,6.75
2023-03-11T09:32:44.818Z,6.62
2023-03-11T09:35:12.234Z,6.64
2023-03-11T09:37:39.826Z,6.47
2023-03-11T09:40:07.906Z,6.41
2023-03-11T09:42:56.916Z,6.72
2023-03-11T09:45:26.496Z,6.79
2023-03-11T09:48:09.005Z,6.72
2023-03-11T09:50:48.742Z,6.36
2023-03-11T09:53:22.470Z,6.79
2023-03-11T09:55:54.549Z,6.90
2023-03-11T09:58:41.528Z,6.85
2023-03-11T10:01:33.316Z,6.51
2023-03-11T10:04:23.933Z,6.77
2023-03-11T10:06:51.717Z,6.92
2023-03-11T10:09:40.765Z,6.37
2023-03-11T10:12:14.984Z,6.34
2023-03-11T10:15:23.317Z,6.57
2023-03-11T10:18:27.519Z,6.43
2023-03-11T10:21:03.930Z,6.59
2023-03-11T10:23:53.571Z,6.04
2023-03-11T10:26:50.357Z,6.61
2023-03-11T10:29:28.913Z,6.19
2023-03-11T10:32:12.678Z,6.28
2023-03-11T10:34:44.970Z,6.18
2023-03-11T10:37:16.539Z,6.11
2023-03-11T10:39:43.883Z,6.40
2023-03-11T10:42:31.847Z,6.12
2023-03-11T10:44:59.463Z,5.97
2023-03-11T10:47:27.000Z,5.76
2023-03-11T10:49:54.383Z,6.03
2023-03-11T10:52:21.946Z,5.93
2023-03-11T10:54:58.734Z,6.24
2023-03-11T10:57:32.788Z,6.55
2023-03-11T11:00:12.656Z,6.13
2023-03-11T11:02:50.759Z,6.27
2023-03-11T11:05:18.045Z,6.40
2023-03-11T11:07:49.583Z,6.63
2023-03-11T11:10:16.833Z,6.98
2023-03-11T11:12:55.813Z,6.76
2023-03-11T11:15:28.947Z,6.98
2023-03-11T11:17:57.918Z,7.31
2023-03-11T11:20:25.593Z,6.72
2023-03-11T11:22:57.513Z,6.77
2023-03-11T11:25:43.022Z,6.82
2023-03-11T11:28:18.392Z,7.00
2023-03-11T11:30:56.510Z,6.91
2023-03-11T11:33:40.361Z,7.16
2023-03-11T11:36:13.885Z,6.82
2023-03-11T11:38:41.464Z,6.98
2023-03-11T11:41:09.764Z,6.85
2023-03-11T11:43:55.549Z,7.13
2023-03-11T11:46:47.341Z,6.99
2023-03-11T11:49:31.495Z,6.75
2023-03-11T11:52:25.066Z,7.01
2023-03-11T11:55:04.170Z,6.80
2023-03-11T11:57:31.757Z,6.58
2023-03-11T11:59:59.134Z,7.03
2023-03-11T12:03:05.229Z,6.84
2023-03-11T12:05:45.426Z,6.76
2023-03-11T12:08:18.789Z,6.72
2023-03-11T12:11:04.532Z,6.58
2023-03-11T12:13:44.542Z,6.63
2023-03-11T12:16:36.925Z,6.34
2023-03-11T12:19:12.955Z,6.27
2023-03-11T12:22:18.874Z,6.52
2023-03-11T12:25:04.286Z,6.37
2023-03-11T12:27:40.420Z,6.57
2023-03-11T12:30:21.718Z,6.47
2023-03-11T12:32:51.545Z,6.29
2023-03-11T12:35:30.971Z,6.74
2023-03-11T12:38:13.442Z,6.75
2023-03-11T12:40:43.630Z,6.56
2023-03-11T12:43:37.146Z,6.61
2023-03-11T12:46:04.812Z,6.58
2023-03-11T12:48:34.638Z,6.60
2023-03-11T12:51:02.034Z,7.20
2023-03-11T12:53:45.653Z,6.82
2023-03-11T12:56:21.338Z,7.29
2023-03-11T12:59:07.358Z,6.96
2023-03-11T13:01:49.628Z,6.77
2023-03-11T13:05:04.554Z,6.62
2023-03-11T13:07:37.947Z,6.83
2023-03-11T13:10:35.836Z,7.26
2023-03-11T13:13:32.982Z,6.74
2023-03-11T13:16:12.598Z,7.24
2023-03-11T13:18:41.017Z,6.80
2023-03-11T13:21:27.110Z,6.99
2023-03-11T13:24:13.420Z,7.12
2023-03-11T13:26:45.486Z,6.33
2023-03-11T13:29:26.703Z,6.53
2023-03-11T13:32:32.762Z,6.58
2023-03-11T13:35:12.516Z,6.74
2023-03-11T13:37:50.634Z,6.39
2023-03-11T13:40:37.508Z,6.52
2023-03-11T13:43:21.592Z,6.45
2023-03-11T13:46:01.807Z,6.26
2023-03-11T13:48:30.969Z,6.53
2023-03-11T13:51:06.795Z,6.19
2023-03-11T13:53:45.249Z,6.32
2023-03-11T13:56:28.319Z,6.51
2023-03-11T13:59:16.742Z,6.36
2023-03-11T14:01:54.643Z,6.64
2023-03-11T14:04:32.849Z,6.27
2023-03-11T14:07:00.415Z,6.22
2023-03-11T14:09:28.586Z,6.48
2023-03-11T14:12:04.844Z,6.22
2023-03-11T14:14:41.485Z,6.23
2023-03-11T14:17:13.251Z,6.50
2023-03-11T14:19:40.830Z,6.67
2023-03-11T14:22:08.682Z,6.13
2023-03-11T14:24:36.003Z,6.32
2023-03-11T14:27:06.974Z,6.58
2023-03-11T14:29:35.499Z,6.46
2023-03-11T14:32:28.927Z,6.20
2023-03-11T14:34:56.750Z,6.42
2023-03-11T14:37:34.594Z,6.17
2023-03-11T14:40:02.563Z,6.08
2023-03-11T14:42:35.137Z,6.03
2023-03-11T14:45:15.896Z,6.04
2023-03-11T14:48:08.535Z,5.96
2023-03-11T14:50:36.170Z,6.37
2023-03-11T14:53:12.252Z,6.25
2023-03-11T14:55:42.842Z,6.12
2023-03-11T14:58:23.908Z,6.05
2023-03-11T15:01:15.010Z,5.94
2023-03-11T15:03:47.317Z,5.88
2023-03-11T15:06:19.601Z,5.78
2023-03-11T15:08:48.464Z,5.73
2023-03-11T15:11:16.377Z,5.47
2023-03-11T15:13:46.326Z,5.54
2023-03-11T15:16:34.248Z,5.51
2023-03-11T15:19:02.999Z,5.55
2023-03-11T15:21:30.956Z,5.76
2023-03-11T15:24:01.157Z,5.63
2023-03-11T15:26:30.423Z,5.30
2023-03-11T15:29:11.894Z,5.55
2023-03-11T15:31:40.017Z,5.46
2023-03-11T15:34:08.993Z,5.50
2023-03-11T15:36:40.642Z,5.51
2023-03-11T15:39:18.649Z,5.68
2023-03-11T15:41:59.858Z,5.45
2023-03-11T15:44:32.608Z,5.27
2023-03-11T15:47:00.902Z,5.24
2023-03-11T15:49:29.352Z,5.38
2023-03-11T15:52:00.283Z,5.71
2023-03-11T15:54:27.995Z,5.32
2023-03-11T15:56:56.504Z,5.35
2023-03-11T15:59:23.800Z,5.14
2023-03-11T16:01:51.166Z,5.07
2023-03-11T16:04:19.237Z,5.29
2023-03-11T16:06:56.528Z,5.48
2023-03-11T16:09:32.958Z,5.22
2023-03-11T16:12:01.702Z,5.00
2023-03-11T16:14:29.009Z,5.23
2023-03-11T16:16:56.624Z,5.21
2023-03-11T16:19:23.967Z,5.07
2023-03-11T16:21:51.347Z,5.23
2023-03-11T16:24:20.511Z,5.41
2023-03-11T16:26:48.388Z,4.80
2023-03-11T16:29:19.716Z,4.79
2023-03-11T16:31:48.906Z,5.06
2023-03-11T16:34:16.252Z,4.92
2023-03-11T16:36:43.604Z,4.89
2023-03-11T16:39:11.238Z,4.77
2023-03-11T16:41:43.149Z,4.68
2023-03-11T16:44:10.917Z,4.88
2023-03-11T16:46:38.564Z,4.97
2023-03-11T16:49:06.058Z,4.82
2023-03-11T16:51:33.672Z,4.42
2023-03-11T16:54:01.096Z,4.38
2023-03-11T16:56:28.456Z,4.40
2023-03-11T16:58:56.070Z,4.82
2023-03-11T17:01:23.453Z,4.47
2023-03-11T17:03:50.884Z,4.85
2023-03-11T17:06:19.017Z,4.58
2023-03-11T17:08:49.120Z,4.43
2023-03-11T17:11:22.914Z,4.42
2023-03-11T17:13:50.650Z,5.16
2023-03-11T17:16:17.992Z,4.88
2023-03-11T17:18:45.379Z,4.57
2023-03-11T17:21:14.087Z,4.56
2023-03-11T17:23:41.558Z,4.66
2023-03-11T17:26:10.187Z,4.50
2023-03-11T17:28:38.319Z,4.70
2023-03-11T17:31:07.267Z,4.87
2023-03-11T17:33:34.596Z,4.60
2023-03-11T17:36:03.353Z,4.45
2023-03-11T17:38:30.725Z,4.22
2023-03-11T17:40:58.151Z,4.54
2023-03-11T17:43:25.858Z,4.79
2023-03-11T17:45:53.901Z,4.27
2023-03-11T17:48:21.362Z,4.32
2023-03-11T17:50:48.979Z,4.51
2023-03-11T17:53:16.381Z,4.70
2023-03-11T17:55:43.710Z,5.11
2023-03-11T17:58:11.380Z,4.26
2023-03-11T18:00:38.745Z,4.09
2023-03-11T18:03:06.356Z,4.11
2023-03-11T18:05:33.692Z,4.24
2023-03-11T18:08:01.031Z,4.21
2023-03-11T18:10:28.699Z,4.06
2023-03-11T18:12:56.103Z,4.32
2023-03-11T18:15:24.441Z,4.02
2023-03-11T18:17:52.014Z,4.39
2023-03-11T18:20:19.473Z,3.96
2023-03-11T18:22:47.296Z,4.18
2023-03-11T18:25:15.049Z,4.06
2023-03-11T18:27:42.425Z,4.73
2023-03-11T18:30:11.282Z,4.37
2023-03-11T18:32:38.927Z,3.81
2023-03-11T18:35:06.667Z,4.10
2023-03-11T18:37:34.077Z,3.74
2023-03-11T18:40:01.773Z,4.04
2023-03-11T18:42:29.129Z,3.82
2023-03-11T18:44:56.466Z,4.04
2023-03-11T18:47:24.080Z,3.88
2023-03-11T18:49:51.445Z,3.89
2023-03-11T18:52:18.797Z,3.69
2023-03-11T18:54:46.390Z,3.70
2023-03-11T18:57:13.714Z,3.68
2023-03-11T18:59:41.032Z,3.99
2023-03-11T19:02:10.095Z,3.72
2023-03-11T19:04:37.456Z,4.04
2023-03-11T19:07:04.990Z,3.74
2023-03-11T19:09:32.604Z,3.53
2023-03-11T19:11:59.971Z,3.60
2023-03-11T19:14:27.325Z,4.12
2023-03-11T19:16:54.991Z,4.15
2023-03-11T19:19:22.405Z,3.65
2023-03-11T19:21:49.749Z,3.58
2023-03-11T19:24:17.330Z,3.85
2023-03-11T19:26:46.172Z,3.82
2023-03-11T19:29:14.253Z,3.52
2023-03-11T19:31:43.541Z,3.51
2023-03-11T19:34:11.075Z,3.37
2023-03-11T19:36:39.248Z,3.56
2023-03-11T19:39:07.058Z,3.42
2023-03-11T19:41:34.502Z,3.45
2023-03-11T19:44:04.095Z,4.04
2023-03-11T19:46:34.580Z,3.55
2023-03-11T19:49:02.617Z,3.47
2023-03-11T19:51:38.858Z,3.42
2023-03-11T19:54:16.217Z,3.13
2023-03-11T19:56:43.754Z,3.41
2023-03-11T19:59:11.145Z,3.18
2023-03-11T20:01:38.835Z,3.56
2023-03-11T20:04:06.500Z,3.04
2023-03-11T20:06:34.064Z,3.12
2023-03-11T20:09:01.493Z,3.18
2023-03-11T20:11:29.120Z,3.19
2023-03-11T20:13:56.468Z,3.07
2023-03-11T20:16:23.867Z,2.97
2023-03-11T20:18:51.830Z,2.92
2023-03-11T20:21:19.330Z,3.07
2023-03-11T20:23:48.803Z,2.90
2023-03-11T20:26:17.510Z,2.94
2023-03-11T20:28:45.002Z,3.22
2023-03-11T20:31:22.486Z,3.04
2023-03-11T20:33:50.548Z,2.87
2023-03-11T20:36:21.232Z,3.68
2023-03-11T20:38:49.485Z,2.90
2023-03-11T20:41:17.138Z,2.60
2023-03-11T20:43:44.578Z,3.11
2023-03-11T20:46:12.238Z,2.85
2023-03-11T20:48:39.879Z,3.21
2023-03-11T20:51:09.139Z,2.47
2023-03-11T20:53:36.617Z,2.45
2023-03-11T20:56:11.993Z,2.54
2023-03-11T20:58:39.360Z,3.47
2023-03-11T21:01:20.429Z,3.18
2023-03-11T21:03:47.963Z,2.43
2023-03-11T21:06:20.594Z,2.89
2023-03-11T21:08:47.956Z,2.65
2023-03-11T21:11:15.924Z,2.52
2023-03-11T21:13:43.309Z,2.72
2023-03-11T21:16:10.764Z,2.41
2023-03-11T21:18:38.502Z,2.49
2023-03-11T21:21:08.506Z,2.34
2023-03-11T21:23:35.929Z,2.20
2023-03-11T21:26:04.178Z,2.26
2023-03-11T21:28:31.812Z,2.06
2023-03-11T21:31:00.289Z,2.36
2023-03-11T21:33:28.082Z,2.12
2023-03-11T21:35:56.065Z,2.62
2023-03-11T21:38:23.620Z,2.51
2023-03-11T21:40:51.421Z,2.30
2023-03-11T21:43:19.453Z,2.10
2023-03-11T21:45:47.074Z,2.30
2023-03-11T21:48:15.393Z,2.27
2023-03-11T21:50:42.832Z,2.26
2023-03-11T21:53:10.238Z,2.04
2023-03-11T21:55:37.976Z,2.54
2023-03-11T21:58:05.283Z,2.22
2023-03-11T22:00:32.686Z,2.31
2023-03-11T22:03:00.605Z,2.58
2023-03-11T22:05:28.235Z,2.75
2023-03-11T22:07:55.637Z,2.56
2023-03-11T22:10:23.506Z,2.46
2023-03-11T22:12:50.827Z,2.34
2023-03-11T22:15:18.210Z,2.26
2023-03-11T22:17:46.005Z,2.15
2023-03-11T22:20:13.538Z,1.80
2023-03-11T22:22:41.066Z,1.99
2023-03-11T22:25:08.867Z,1.86
2023-03-11T22:27:36.207Z,1.77
2023-03-11T22:30:03.840Z,2.01
2023-03-11T22:32:31.642Z,1.80
2023-03-11T22:34:58.976Z,1.71
2023-03-11T22:37:26.449Z,1.58
2023-03-11T22:39:54.064Z,1.85
2023-03-11T22:42:21.391Z,1.61
2023-03-11T22:44:48.716Z,1.80
2023-03-11T22:47:16.330Z,1.66
2023-03-11T22:49:43.684Z,2.00
2023-03-11T22:52:11.017Z,2.00
2023-03-11T22:54:38.722Z,2.17
2023-03-11T22:57:06.127Z,1.69
2023-03-11T22:59:33.473Z,2.01
2023-03-11T23:02:01.100Z,2.37
2023-03-11T23:04:28.430Z,1.77
2023-03-11T23:06:55.764Z,2.10
2023-03-11T23:09:23.549Z,1.58
2023-03-11T23:11:51.247Z,1.41
2023-03-11T23:14:20.613Z,1.42
2023-03-11T23:16:51.322Z,1.66
2023-03-11T23:19:18.718Z,2.05
2023-03-11T23:21:46.013Z,1.47
2023-03-11T23:24:13.580Z,1.47
2023-03-11T23:26:40.914Z,1.27
2023-03-11T23:29:08.286Z,1.43
2023-03-11T23:31:36.431Z,1.59
2023-03-11T23:34:06.474Z,1.47
2023-03-11T23:36:33.818Z,1.16
2023-03-11T23:39:01.434Z,1.42
2023-03-11T23:41:29.191Z,1.30
2023-03-11T23:43:56.556Z,1.53
2023-03-11T23:46:24.212Z,1.33
2023-03-11T23:48:51.605Z,1.26
2023-03-11T23:51:18.914Z,1.33
2023-03-11T23:53:46.524Z,1.32
2023-03-11T23:56:16.871Z,0.97
2023-03-11T23:58:44.266Z,1.55
